createdAt,value
2018-05-15T00:00:51.820Z,76.04
2018-05-15T00:01:51.983Z,79.39
2018-05-15T00:02:52.152Z,80.26
2018-05-15T00:03:52.316Z,80.45
2018-05-15T00:06:34.866Z,86.54
2018-05-15T00:07:35.043Z,85.34
2018-05-15T00:08:35.205Z,85.63
2018-05-15T00:09:35.370Z,83.52
2018-05-15T00:10:35.541Z,83.33
2018-05-15T00:11:35.707Z,81.98
2018-05-15T00:12:35.877Z,86.30
2018-05-15T00:13:36.041Z,86.58
2018-05-15T00:14:36.204Z,87.26
2018-05-15T00:15:36.369Z,88.98
2018-05-15T00:18:18.953Z,94.59
2018-05-15T00:19:19.110Z,93.93
2018-05-15T00:20:19.279Z,94.89
2018-05-15T00:21:19.446Z,95.65
2018-05-15T00:22:19.615Z,96.42
2018-05-15T00:23:19.776Z,96.22
2018-05-15T00:24:19.942Z,96.03
2018-05-15T00:25:20.108Z,96.61
2018-05-15T00:26:20.273Z,97.23
2018-05-15T00:27:20.436Z,99.15
2018-05-15T00:28:20.605Z,99.15
2018-05-15T00:29:20.940Z,99.15
2018-05-15T00:30:21.014Z,99.99
2018-05-15T00:31:21.092Z,99.72
2018-05-15T00:32:29.199Z,99.99
2018-05-15T00:33:21.360Z,99.91
2018-05-15T00:34:21.515Z,99.99
2018-05-15T00:35:21.679Z,99.99
2018-05-15T00:36:21.848Z,99.99
2018-05-15T00:37:22.011Z,99.99
2018-05-15T00:38:22.181Z,99.99
2018-05-15T00:39:22.349Z,99.99
2018-05-15T00:40:22.517Z,99.99
2018-05-15T00:41:22.686Z,99.99
2018-05-15T00:42:22.867Z,99.99
2018-05-15T00:44:56.400Z,99.99
2018-05-15T00:45:56.557Z,99.99
2018-05-15T00:46:56.722Z,99.99
2018-05-15T00:47:56.904Z,99.99
2018-05-15T00:48:57.050Z,99.99
2018-05-15T00:49:57.208Z,99.99
2018-05-15T00:50:57.372Z,99.99
2018-05-15T00:51:57.541Z,99.99
2018-05-15T00:52:57.715Z,99.99
2018-05-15T00:53:57.883Z,99.99
2018-05-15T00:54:58.045Z,99.99
2018-05-15T00:55:58.211Z,99.99
2018-05-15T00:56:58.376Z,99.99
2018-05-15T00:57:58.533Z,99.99
2018-05-15T00:58:58.707Z,99.99
2018-05-15T01:01:31.013Z,99.99
2018-05-15T01:02:31.174Z,99.87
2018-05-15T01:03:31.341Z,99.67
2018-05-15T01:04:31.522Z,99.99
2018-05-15T01:05:32.513Z,99.99
2018-05-15T01:06:31.807Z,99.99
2018-05-15T01:07:32.519Z,99.99
2018-05-15T01:08:33.013Z,99.99
2018-05-15T01:09:33.011Z,99.99
2018-05-15T01:10:32.428Z,99.99
2018-05-15T01:11:32.595Z,99.99
2018-05-15T01:12:32.765Z,99.99
2018-05-15T01:13:32.930Z,99.99
2018-05-15T01:14:33.094Z,99.96
2018-05-15T01:15:33.258Z,99.99
2018-05-15T01:18:05.545Z,98.47
2018-05-15T01:19:05.706Z,98.00
2018-05-15T01:20:05.872Z,97.71
2018-05-15T01:21:06.035Z,99.24
2018-05-15T01:22:06.201Z,99.52
2018-05-15T01:23:06.369Z,99.58
2018-05-15T01:24:06.532Z,99.62
2018-05-15T01:25:06.694Z,98.66
2018-05-15T01:26:06.895Z,98.57
2018-05-15T01:27:07.053Z,98.86
2018-05-15T01:28:07.218Z,99.24
2018-05-15T01:29:07.384Z,99.43
2018-05-15T01:30:07.550Z,98.86
2018-05-15T01:31:07.720Z,98.86
2018-05-15T01:32:07.884Z,98.95
2018-05-15T01:34:40.183Z,99.99
2018-05-15T01:35:40.359Z,99.99
2018-05-15T01:36:41.186Z,99.24
2018-05-15T01:37:40.732Z,99.72
2018-05-15T01:38:40.896Z,99.62
2018-05-15T01:39:41.058Z,99.05
2018-05-15T01:40:41.222Z,99.33
2018-05-15T01:41:41.386Z,98.76
2018-05-15T01:42:41.551Z,98.86
2018-05-15T01:43:41.723Z,99.33
2018-05-15T01:44:41.887Z,99.99
2018-05-15T01:45:42.053Z,99.91
2018-05-15T01:46:42.226Z,99.99
2018-05-15T01:47:42.385Z,99.99
2018-05-15T01:48:42.546Z,99.99
2018-05-15T01:51:24.825Z,99.99
2018-05-15T01:52:24.993Z,99.99
2018-05-15T01:53:25.146Z,99.99
2018-05-15T01:54:25.347Z,99.99
2018-05-15T01:55:25.469Z,99.99
2018-05-15T01:56:25.636Z,99.99
2018-05-15T01:57:26.367Z,99.99
2018-05-15T01:58:26.040Z,99.99
2018-05-15T01:59:26.208Z,99.99
2018-05-15T02:00:26.363Z,99.91
2018-05-15T02:01:26.564Z,99.05
2018-05-15T02:02:26.706Z,98.66
2018-05-15T02:03:26.874Z,99.24
2018-05-15T02:04:27.037Z,99.43
2018-05-15T02:05:27.201Z,98.47
2018-05-15T02:08:09.462Z,99.43
2018-05-15T02:09:09.618Z,99.62
2018-05-15T02:10:09.786Z,98.38
2018-05-15T02:11:09.943Z,98.09
2018-05-15T02:12:10.127Z,99.72
2018-05-15T02:13:11.006Z,99.52
2018-05-15T02:14:10.429Z,99.81
2018-05-15T02:15:10.587Z,99.91
2018-05-15T02:16:10.837Z,99.99
2018-05-15T02:17:10.909Z,99.96
2018-05-15T02:18:11.092Z,99.99
2018-05-15T02:19:11.257Z,99.99
2018-05-15T02:20:11.424Z,99.99
2018-05-15T02:21:11.593Z,99.99
2018-05-15T02:22:11.777Z,99.99
2018-05-15T02:24:44.041Z,99.99
2018-05-15T02:25:44.205Z,99.99
2018-05-15T02:26:44.371Z,99.99
2018-05-15T02:27:44.536Z,99.43
2018-05-15T02:28:44.707Z,98.76
2018-05-15T02:29:44.867Z,99.99
2018-05-15T02:30:45.033Z,99.99
2018-05-15T02:31:45.202Z,99.99
2018-05-15T02:32:45.374Z,99.99
2018-05-15T02:33:45.533Z,99.99
2018-05-15T02:34:45.701Z,99.99
2018-05-15T02:35:45.869Z,99.99
2018-05-15T02:36:46.069Z,99.99
2018-05-15T02:37:46.191Z,99.99
2018-05-15T02:38:46.353Z,99.99
2018-05-15T02:41:28.939Z,99.99
2018-05-15T02:42:29.107Z,99.99
2018-05-15T02:43:29.291Z,99.99
2018-05-15T02:44:29.454Z,99.99
2018-05-15T02:45:29.617Z,99.99
2018-05-15T02:46:29.788Z,99.99
2018-05-15T02:47:29.948Z,99.99
2018-05-15T02:48:30.190Z,99.99
2018-05-15T02:49:30.338Z,99.99
2018-05-15T02:50:30.507Z,99.99
2018-05-15T02:53:02.791Z,99.99
2018-05-15T02:54:02.993Z,99.99
2018-05-15T02:55:03.112Z,99.99
2018-05-15T02:56:03.309Z,99.99
2018-05-15T02:57:03.490Z,99.99
2018-05-15T02:58:04.305Z,99.99
2018-05-15T02:59:03.837Z,99.99
2018-05-15T03:00:04.001Z,99.99
2018-05-15T03:01:04.165Z,99.99
2018-05-15T03:02:04.333Z,99.99
2018-05-15T03:03:04.496Z,99.99
2018-05-15T03:04:04.665Z,99.99
2018-05-15T03:05:04.849Z,99.99
2018-05-15T03:06:05.020Z,99.99
2018-05-15T03:07:05.161Z,99.99
2018-05-15T03:09:55.027Z,99.99
2018-05-15T03:10:55.216Z,99.99
2018-05-15T03:11:55.382Z,99.99
2018-05-15T03:12:55.539Z,99.99
2018-05-15T03:13:55.702Z,99.99
2018-05-15T03:14:55.866Z,99.99
2018-05-15T03:16:03.494Z,99.99
2018-05-15T03:16:56.151Z,99.62
2018-05-15T03:17:56.318Z,98.81
2018-05-15T03:18:56.506Z,96.89
2018-05-15T03:19:56.665Z,97.08
2018-05-15T03:20:56.829Z,96.70
2018-05-15T03:21:57.024Z,95.94
2018-05-15T03:22:57.198Z,96.99
2018-05-15T03:23:57.361Z,95.84
2018-05-15T03:24:57.529Z,94.98
2018-05-15T03:25:58.427Z,94.26
2018-05-15T03:26:57.854Z,93.31
2018-05-15T03:27:58.022Z,93.50
2018-05-15T03:28:58.187Z,93.31
2018-05-15T03:29:58.352Z,94.74
2018-05-15T03:32:30.915Z,95.75
2018-05-15T03:33:31.090Z,96.70
2018-05-15T03:34:31.259Z,97.37
2018-05-15T03:35:31.424Z,97.47
2018-05-15T03:36:31.591Z,98.52
2018-05-15T03:37:31.753Z,97.28
2018-05-15T03:38:31.909Z,98.04
2018-05-15T03:39:32.068Z,98.81
2018-05-15T03:40:32.230Z,98.14
2018-05-15T03:41:32.406Z,98.52
2018-05-15T03:44:04.677Z,96.89
2018-05-15T03:45:04.853Z,97.75
2018-05-15T03:46:05.011Z,97.08
2018-05-15T03:47:05.176Z,97.18
2018-05-15T03:48:05.341Z,97.85
2018-05-15T03:49:05.508Z,96.99
2018-05-15T03:50:05.669Z,98.04
2018-05-15T03:51:05.827Z,97.56
2018-05-15T03:52:06.006Z,98.52
2018-05-15T03:53:06.169Z,98.14
2018-05-15T03:54:06.334Z,97.37
2018-05-15T03:55:06.510Z,97.47
2018-05-15T03:56:06.672Z,97.95
2018-05-15T03:57:06.837Z,98.66
2018-05-15T03:58:07.002Z,98.81
2018-05-15T04:01:57.872Z,96.51
2018-05-15T04:02:57.661Z,96.13
2018-05-15T04:03:57.828Z,95.65
2018-05-15T04:04:57.989Z,95.65
2018-05-15T04:05:58.149Z,95.46
2018-05-15T04:06:58.308Z,96.32
2018-05-15T04:07:58.474Z,97.08
2018-05-15T04:08:58.637Z,96.03
2018-05-15T04:09:58.805Z,96.89
2018-05-15T04:10:59.036Z,97.18
2018-05-15T04:11:59.145Z,97.18
2018-05-15T04:12:59.299Z,98.61
2018-05-15T04:13:59.464Z,98.61
2018-05-15T04:14:59.633Z,99.99
2018-05-15T04:15:59.821Z,98.86
2018-05-15T04:18:32.085Z,96.80
2018-05-15T04:19:32.243Z,98.71
2018-05-15T04:20:32.408Z,97.47
2018-05-15T04:21:32.574Z,98.33
2018-05-15T04:22:32.740Z,98.43
2018-05-15T04:23:32.906Z,98.14
2018-05-15T04:24:33.066Z,97.18
2018-05-15T04:25:33.240Z,98.24
2018-05-15T04:26:33.417Z,97.95
2018-05-15T04:27:33.565Z,98.38
2018-05-15T04:28:33.725Z,98.47
2018-05-15T04:29:33.888Z,99.43
2018-05-15T04:30:34.057Z,99.43
2018-05-15T04:31:34.268Z,99.62
2018-05-15T04:32:34.378Z,98.00
2018-05-15T04:36:45.300Z,95.36
2018-05-15T04:37:45.108Z,95.07
2018-05-15T04:38:45.259Z,96.51
2018-05-15T04:39:45.429Z,95.46
2018-05-15T04:40:45.596Z,94.41
2018-05-15T04:41:45.773Z,94.70
2018-05-15T04:42:45.940Z,94.50
2018-05-15T04:43:46.302Z,94.12
2018-05-15T04:44:53.443Z,93.26
2018-05-15T04:45:46.480Z,94.12
2018-05-15T04:46:46.638Z,94.12
2018-05-15T04:47:46.816Z,92.69
2018-05-15T04:48:46.987Z,93.07
2018-05-15T04:49:47.153Z,92.11
2018-05-15T04:50:47.314Z,93.16
2018-05-15T04:51:47.468Z,92.88
2018-05-15T04:52:47.641Z,93.64
2018-05-15T04:53:47.804Z,92.69
2018-05-15T04:54:47.974Z,93.45
2018-05-15T04:55:48.172Z,93.45
2018-05-15T04:56:48.322Z,93.16
2018-05-15T04:57:48.496Z,93.55
2018-05-15T04:58:48.891Z,93.35
2018-05-15T05:01:21.117Z,94.12
2018-05-15T05:02:21.161Z,94.31
2018-05-15T05:03:21.361Z,94.02
2018-05-15T05:04:21.557Z,93.26
2018-05-15T05:05:29.630Z,93.55
2018-05-15T05:06:21.922Z,94.31
2018-05-15T05:07:22.497Z,94.98
2018-05-15T05:08:22.147Z,94.70
2018-05-15T05:09:22.317Z,95.36
2018-05-15T05:10:22.476Z,94.89
2018-05-15T05:11:22.640Z,94.98
2018-05-15T05:12:22.812Z,96.89
2018-05-15T05:13:22.989Z,95.27
2018-05-15T05:14:23.138Z,96.03
2018-05-15T05:15:24.576Z,95.36
2018-05-15T05:16:23.542Z,94.98
2018-05-15T05:17:23.742Z,96.70
2018-05-15T05:18:33.364Z,96.70
2018-05-15T05:19:24.131Z,98.09
2018-05-15T05:20:24.302Z,97.13
2018-05-15T05:21:24.439Z,98.38
2018-05-15T05:22:24.725Z,97.80
2018-05-15T05:23:24.859Z,98.28
2018-05-15T05:26:07.473Z,98.86
2018-05-15T05:27:15.143Z,99.81
2018-05-15T05:28:07.741Z,99.81
2018-05-15T05:29:07.929Z,99.05
2018-05-15T05:30:08.096Z,99.99
2018-05-15T05:31:08.260Z,99.99
2018-05-15T05:32:08.425Z,99.99
2018-05-15T05:33:08.592Z,99.99
2018-05-15T05:34:08.759Z,99.99
2018-05-15T05:35:08.924Z,99.99
2018-05-15T05:36:09.089Z,99.99
2018-05-15T05:37:10.181Z,99.99
2018-05-15T05:39:51.568Z,99.99
2018-05-15T05:40:51.746Z,99.99
2018-05-15T05:41:51.909Z,99.99
2018-05-15T05:42:52.073Z,99.99
2018-05-15T05:43:52.242Z,99.99
2018-05-15T05:44:52.406Z,99.99
2018-05-15T05:45:52.571Z,99.99
2018-05-15T05:46:53.774Z,99.99
2018-05-15T05:47:52.955Z,99.99
2018-05-15T05:48:53.108Z,99.99
2018-05-15T05:50:01.228Z,99.99
2018-05-15T05:50:53.387Z,99.99
2018-05-15T05:53:25.427Z,99.99
2018-05-15T05:54:25.603Z,99.99
2018-05-15T05:55:25.765Z,99.99
2018-05-15T05:56:25.931Z,99.99
2018-05-15T05:57:26.090Z,99.99
2018-05-15T05:58:26.255Z,99.99
2018-05-15T05:59:26.424Z,99.99
2018-05-15T06:00:26.597Z,99.99
2018-05-15T06:01:26.753Z,99.99
2018-05-15T06:02:26.919Z,99.99
2018-05-15T06:03:27.086Z,99.39
2018-05-15T06:04:27.251Z,98.77
2018-05-15T06:05:29.193Z,98.96
2018-05-15T06:06:27.598Z,98.77
2018-05-15T06:07:27.825Z,99.82
2018-05-15T06:10:10.331Z,99.05
2018-05-15T06:11:10.498Z,98.86
2018-05-15T06:12:10.690Z,95.98
2018-05-15T06:13:10.855Z,96.18
2018-05-15T06:14:11.023Z,97.14
2018-05-15T06:15:11.190Z,97.90
2018-05-15T06:16:11.369Z,97.90
2018-05-15T06:17:11.525Z,99.82
2018-05-15T06:18:11.712Z,99.99
2018-05-15T06:19:11.862Z,99.99
2018-05-15T06:20:12.031Z,99.99
2018-05-15T06:21:12.216Z,99.99
2018-05-15T06:22:12.383Z,99.99
2018-05-15T06:23:12.549Z,99.99
2018-05-15T06:24:12.717Z,99.99
2018-05-15T06:26:54.986Z,99.96
2018-05-15T06:27:55.172Z,99.99
2018-05-15T06:28:55.373Z,99.99
2018-05-15T06:29:55.533Z,99.99
2018-05-15T06:30:55.714Z,99.99
2018-05-15T06:31:55.879Z,98.28
2018-05-15T06:32:56.043Z,97.04
2018-05-15T06:33:56.218Z,96.66
2018-05-15T06:34:56.381Z,96.08
2018-05-15T06:35:56.553Z,94.74
2018-05-15T06:36:56.738Z,94.84
2018-05-15T06:37:56.904Z,95.03
2018-05-15T06:38:57.067Z,95.21
2018-05-15T06:39:57.248Z,96.56
2018-05-15T06:40:57.402Z,97.52
2018-05-15T06:43:53.579Z,99.99
2018-05-15T06:44:53.753Z,99.99
2018-05-15T06:45:53.929Z,99.44
2018-05-15T06:46:54.092Z,99.99
2018-05-15T06:47:54.272Z,99.63
2018-05-15T06:48:54.445Z,99.91
2018-05-15T06:49:54.613Z,99.63
2018-05-15T06:50:54.774Z,97.66
2018-05-15T06:51:54.997Z,95.75
2018-05-15T06:52:55.085Z,96.32
2018-05-15T06:54:03.212Z,91.66
2018-05-15T06:54:55.374Z,90.61
2018-05-15T06:55:55.539Z,89.46
2018-05-15T06:56:55.704Z,83.16
2018-05-15T06:57:55.868Z,79.99
2018-05-15T06:58:56.035Z,80.09
2018-05-15T06:59:56.234Z,80.47
2018-05-15T07:00:56.401Z,76.29
2018-05-15T07:01:56.570Z,77.73
2018-05-15T07:02:56.740Z,75.90
2018-05-15T07:03:56.917Z,74.85
2018-05-15T07:06:30.186Z,72.92
2018-05-15T07:07:30.353Z,73.63
2018-05-15T07:08:30.523Z,70.07
2018-05-15T07:09:32.211Z,69.21
2018-05-15T07:10:30.919Z,67.96
2018-05-15T07:11:31.093Z,69.89
2018-05-15T07:12:31.259Z,74.37
2018-05-15T07:13:31.440Z,76.86
2018-05-15T07:14:31.618Z,75.04
2018-05-15T07:15:39.796Z,77.44
2018-05-15T07:16:32.107Z,76.57
2018-05-15T07:17:32.206Z,74.08
2018-05-15T07:18:32.237Z,72.54
2018-05-15T07:19:39.967Z,72.44
2018-05-15T07:20:32.511Z,71.96
2018-05-15T07:21:32.682Z,70.46
2018-05-15T07:22:32.851Z,68.35
2018-05-15T07:23:33.026Z,70.14
2018-05-15T07:24:33.291Z,69.89
2018-05-15T07:25:33.340Z,69.50
2018-05-15T07:26:33.556Z,68.76
2018-05-15T07:27:34.252Z,67.03
2018-05-15T07:28:35.747Z,64.34
2018-05-15T07:29:34.669Z,62.03
2018-05-15T07:30:34.215Z,62.19
2018-05-15T07:31:34.375Z,58.47
2018-05-15T07:32:34.548Z,56.84
2018-05-15T07:33:34.711Z,57.99
2018-05-15T07:36:07.365Z,56.36
2018-05-15T07:37:07.539Z,54.91
2018-05-15T07:38:07.736Z,56.07
2018-05-15T07:39:07.902Z,56.84
2018-05-15T07:40:08.084Z,56.84
2018-05-15T07:41:08.243Z,57.80
2018-05-15T07:42:08.406Z,58.47
2018-05-15T07:43:08.569Z,58.31
2018-05-15T07:44:08.750Z,59.75
2018-05-15T07:45:08.901Z,57.35
2018-05-15T07:46:09.059Z,56.77
2018-05-15T07:47:09.232Z,55.62
2018-05-15T07:48:09.440Z,54.46
2018-05-15T07:49:09.618Z,53.21
2018-05-15T07:50:09.785Z,54.05
2018-05-15T07:52:42.107Z,53.59
2018-05-15T07:53:44.129Z,52.73
2018-05-15T07:54:42.554Z,52.44
2018-05-15T07:55:42.625Z,53.11
2018-05-15T07:56:42.804Z,52.63
2018-05-15T07:57:42.981Z,52.15
2018-05-15T07:58:43.170Z,52.34
2018-05-15T07:59:43.336Z,50.51
2018-05-15T08:00:43.510Z,50.06
2018-05-15T08:01:43.679Z,49.19
2018-05-15T08:04:26.327Z,49.84
2018-05-15T08:05:26.440Z,49.94
2018-05-15T08:06:26.615Z,49.74
2018-05-15T08:07:27.530Z,50.23
2018-05-15T08:08:26.953Z,50.04
2018-05-15T08:09:27.127Z,48.79
2018-05-15T08:10:27.992Z,49.65
2018-05-15T08:11:27.404Z,49.17
2018-05-15T08:12:27.572Z,48.97
2018-05-15T08:13:27.738Z,49.82
2018-05-15T08:14:27.909Z,49.84
2018-05-15T08:15:28.073Z,50.42
2018-05-15T08:16:28.247Z,50.71
2018-05-15T08:17:28.411Z,50.51
2018-05-15T08:18:28.587Z,50.61
2018-05-15T08:21:10.926Z,51.29
2018-05-15T08:22:11.131Z,50.71
2018-05-15T08:23:19.285Z,50.25
2018-05-15T08:24:11.419Z,49.68
2018-05-15T08:25:11.617Z,49.68
2018-05-15T08:26:11.769Z,49.38
2018-05-15T08:27:19.701Z,48.44
2018-05-15T08:28:12.113Z,48.64
2018-05-15T08:29:12.198Z,48.64
2018-05-15T08:30:12.371Z,48.35
2018-05-15T08:31:12.552Z,48.74
2018-05-15T08:32:12.732Z,48.74
2018-05-15T08:33:12.897Z,48.47
2018-05-15T08:34:13.087Z,48.66
2018-05-15T08:35:13.244Z,48.28
2018-05-15T08:36:13.405Z,48.95
2018-05-15T08:37:13.574Z,47.80
2018-05-15T08:39:46.446Z,47.14
2018-05-15T08:40:46.609Z,46.47
2018-05-15T08:41:46.850Z,46.83
2018-05-15T08:42:46.916Z,46.83
2018-05-15T08:43:47.109Z,46.45
2018-05-15T08:44:47.297Z,46.45
2018-05-15T08:45:47.464Z,46.45
2018-05-15T08:46:47.652Z,46.35
2018-05-15T08:47:47.834Z,46.15
2018-05-15T08:48:48.035Z,45.48
2018-05-15T08:49:48.221Z,44.62
2018-05-15T08:50:48.395Z,44.23
2018-05-15T08:51:48.619Z,43.27
2018-05-15T08:52:48.865Z,43.27
2018-05-15T08:53:48.905Z,42.90
2018-05-15T08:54:57.050Z,45.03
2018-05-15T08:55:49.237Z,44.25
2018-05-15T08:56:49.403Z,43.77
2018-05-15T08:57:49.566Z,42.90
2018-05-15T08:58:49.738Z,43.29
2018-05-15T08:59:49.901Z,43.29
2018-05-15T09:00:50.112Z,43.77
2018-05-15T09:01:50.254Z,42.80
2018-05-15T09:02:50.435Z,43.02
2018-05-15T09:03:50.600Z,41.75
2018-05-15T09:04:50.769Z,41.65
2018-05-15T09:05:50.940Z,41.07
2018-05-15T09:06:51.130Z,40.97
2018-05-15T09:07:51.270Z,40.88
2018-05-15T09:08:51.431Z,40.30
2018-05-15T09:11:41.299Z,40.95
2018-05-15T09:12:33.831Z,41.05
2018-05-15T09:13:34.045Z,40.95
2018-05-15T09:14:34.147Z,41.14
2018-05-15T09:15:34.311Z,41.24
2018-05-15T09:16:34.475Z,40.76
2018-05-15T09:17:34.647Z,40.78
2018-05-15T09:18:34.814Z,40.69
2018-05-15T09:19:43.006Z,40.66
2018-05-15T09:20:35.238Z,40.78
2018-05-15T09:21:35.392Z,40.69
2018-05-15T09:22:35.559Z,41.17
2018-05-15T09:23:35.746Z,41.36
2018-05-15T09:24:35.914Z,40.97
2018-05-15T09:25:36.150Z,40.97
2018-05-15T09:26:36.247Z,40.69
2018-05-15T09:27:36.428Z,41.46
2018-05-15T09:28:36.612Z,41.27
2018-05-15T09:29:36.802Z,40.69
2018-05-15T09:32:10.478Z,41.19
2018-05-15T09:33:10.610Z,40.90
2018-05-15T09:34:10.788Z,40.51
2018-05-15T09:35:10.945Z,40.70
2018-05-15T09:37:43.116Z,41.28
2018-05-15T09:38:43.295Z,42.05
2018-05-15T09:39:43.460Z,42.15
2018-05-15T09:40:43.670Z,41.96
2018-05-15T09:41:43.819Z,41.60
2018-05-15T09:42:43.982Z,41.50
2018-05-15T09:43:44.152Z,41.30
2018-05-15T09:44:44.331Z,40.92
2018-05-15T09:45:44.498Z,40.80
2018-05-15T09:46:52.257Z,40.90
2018-05-15T09:47:45.825Z,41.46
2018-05-15T09:48:45.989Z,41.46
2018-05-15T09:49:45.204Z,42.03
2018-05-15T09:50:45.553Z,42.61
2018-05-15T09:51:45.572Z,42.71
2018-05-15T09:52:45.820Z,42.80
2018-05-15T09:53:45.961Z,42.71
2018-05-15T09:54:53.911Z,42.71
2018-05-15T09:55:46.293Z,42.03
2018-05-15T09:56:46.464Z,42.32
2018-05-15T09:57:46.693Z,42.32
2018-05-15T09:58:46.948Z,42.03
2018-05-15T09:59:46.979Z,42.63
2018-05-15T10:00:47.175Z,42.25
2018-05-15T10:01:47.382Z,41.96
2018-05-15T10:02:55.332Z,41.19
2018-05-15T10:03:47.749Z,40.99
2018-05-15T10:04:48.858Z,41.07
2018-05-15T10:05:48.080Z,41.48
2018-05-15T10:06:48.240Z,41.57
2018-05-15T10:07:48.478Z,41.84
2018-05-15T10:08:49.375Z,42.13
2018-05-15T10:09:48.791Z,42.23
2018-05-15T10:10:48.962Z,42.15
2018-05-15T10:11:49.129Z,41.96
2018-05-15T10:12:49.295Z,41.77
2018-05-15T10:13:49.454Z,41.77
2018-05-15T10:14:49.621Z,42.15
2018-05-15T10:15:49.791Z,41.96
2018-05-15T10:16:49.983Z,41.84
2018-05-15T10:17:58.206Z,41.96
2018-05-15T10:18:50.292Z,41.96
2018-05-15T10:19:50.483Z,41.86
2018-05-15T10:20:50.742Z,41.86
2018-05-15T10:21:51.036Z,41.98
2018-05-15T10:22:51.033Z,41.57
2018-05-15T10:23:51.203Z,41.88
2018-05-15T10:24:58.567Z,41.67
2018-05-15T10:25:51.485Z,41.67
2018-05-15T10:26:51.660Z,41.96
2018-05-15T10:27:51.916Z,42.32
2018-05-15T10:28:52.052Z,41.46
2018-05-15T10:29:52.263Z,41.09
2018-05-15T10:30:52.446Z,40.80
2018-05-15T10:31:52.510Z,40.80
2018-05-15T10:32:52.664Z,41.09
2018-05-15T10:33:52.848Z,40.90
2018-05-15T10:34:53.003Z,40.80
2018-05-15T10:35:53.169Z,40.70
2018-05-15T10:36:53.912Z,41.28
2018-05-15T10:37:53.447Z,41.28
2018-05-15T10:38:53.603Z,42.25
2018-05-15T10:40:01.850Z,42.27
2018-05-15T10:40:54.257Z,41.20
2018-05-15T10:41:54.164Z,41.69
2018-05-15T10:42:56.032Z,41.69
2018-05-15T10:43:54.465Z,41.67
2018-05-15T10:44:54.612Z,41.96
2018-05-15T10:45:54.766Z,42.25
2018-05-15T10:48:26.593Z,41.60
2018-05-15T10:49:26.653Z,41.88
2018-05-15T10:50:26.876Z,41.11
2018-05-15T10:51:27.047Z,40.82
2018-05-15T10:52:27.214Z,40.82
2018-05-15T10:53:27.407Z,40.82
2018-05-15T10:54:27.614Z,41.40
2018-05-15T10:55:27.767Z,40.72
2018-05-15T10:56:27.957Z,41.30
2018-05-15T10:57:28.144Z,40.82
2018-05-15T10:58:28.380Z,40.63
2018-05-15T10:59:28.804Z,40.24
2018-05-15T11:00:36.404Z,40.53
2018-05-15T11:01:28.839Z,40.34
2018-05-15T11:02:29.033Z,40.55
2018-05-15T11:03:29.202Z,40.65
2018-05-15T11:04:29.370Z,40.55
2018-05-15T11:05:29.551Z,40.75
2018-05-15T11:06:30.617Z,41.13
2018-05-15T11:07:29.892Z,40.55
2018-05-15T11:08:30.067Z,39.87
2018-05-15T11:09:32.096Z,40.07
2018-05-15T11:10:32.105Z,40.38
2018-05-15T11:11:30.714Z,39.39
2018-05-15T11:12:32.711Z,39.39
2018-05-15T11:13:30.992Z,41.13
2018-05-15T11:14:39.046Z,40.65
2018-05-15T11:15:31.228Z,40.47
2018-05-15T11:16:31.415Z,40.17
2018-05-15T11:17:31.604Z,40.75
2018-05-15T11:18:32.737Z,40.75
2018-05-15T11:19:31.981Z,40.75
2018-05-15T11:20:32.145Z,41.81
2018-05-15T11:21:32.322Z,41.52
2018-05-15T11:22:32.500Z,40.86
2018-05-15T11:23:40.634Z,40.55
2018-05-15T11:24:32.885Z,41.33
2018-05-15T11:25:33.042Z,41.03
2018-05-15T11:26:35.174Z,41.52
2018-05-15T11:27:36.175Z,41.91
2018-05-15T11:28:33.484Z,42.10
2018-05-15T11:29:33.646Z,42.58
2018-05-15T11:30:41.298Z,44.97
2018-05-15T11:31:33.972Z,46.42
2018-05-15T11:32:34.154Z,47.87
2018-05-15T11:33:34.337Z,70.64
2018-05-15T11:34:34.495Z,53.25
2018-05-15T11:35:34.754Z,50.54
2018-05-15T11:36:34.836Z,63.82
2018-05-15T11:37:35.020Z,67.78
2018-05-15T11:38:35.211Z,83.30
2018-05-15T11:39:35.465Z,91.02
2018-05-15T11:40:35.630Z,71.83
2018-05-15T11:41:35.897Z,74.72
2018-05-15T11:42:35.902Z,62.28
2018-05-15T11:43:36.085Z,63.63
2018-05-15T11:44:36.266Z,80.89
2018-05-15T11:45:44.395Z,80.60
2018-05-15T11:46:36.590Z,64.50
2018-05-15T11:47:37.019Z,57.17
2018-05-15T11:48:37.211Z,60.64
2018-05-15T11:49:37.838Z,69.23
2018-05-15T11:50:37.908Z,74.72
2018-05-15T11:51:38.742Z,65.75
2018-05-15T11:52:38.244Z,65.95
2018-05-15T11:53:37.807Z,63.06
2018-05-15T11:54:37.973Z,60.83
2018-05-15T11:55:42.713Z,70.48
2018-05-15T11:56:46.068Z,71.06
2018-05-15T11:57:38.507Z,71.54
2018-05-15T11:58:38.687Z,93.23
2018-05-15T11:59:38.881Z,63.44
2018-05-15T12:00:39.054Z,80.99
2018-05-15T12:01:39.224Z,84.65
2018-05-15T12:02:39.450Z,64.31
2018-05-15T12:03:39.588Z,65.17
2018-05-15T12:04:39.775Z,63.34
2018-05-15T12:05:39.961Z,96.99
2018-05-15T12:06:40.361Z,97.86
2018-05-15T12:07:40.319Z,95.36
2018-05-15T12:08:40.439Z,99.74
2018-05-15T12:09:48.631Z,99.35
2018-05-15T12:10:40.866Z,99.99
2018-05-15T12:11:41.248Z,99.02
2018-05-15T12:12:41.265Z,99.99
2018-05-15T12:13:49.365Z,81.18
2018-05-15T12:14:41.774Z,98.63
2018-05-15T12:15:41.768Z,75.68
2018-05-15T12:16:41.936Z,52.83
2018-05-15T12:17:42.103Z,69.51
2018-05-15T12:18:50.343Z,54.11
2018-05-15T12:19:42.381Z,50.26
2018-05-15T12:20:42.547Z,52.47
2018-05-15T12:21:43.622Z,49.58
2018-05-15T12:22:42.925Z,47.75
2018-05-15T12:23:51.093Z,49.96
2018-05-15T12:24:43.252Z,47.85
2018-05-15T12:25:43.487Z,48.52
2018-05-15T12:26:43.825Z,47.27
2018-05-15T12:27:43.793Z,46.40
2018-05-15T12:28:44.073Z,45.43
2018-05-15T12:29:52.120Z,45.41
2018-05-15T12:30:44.269Z,45.03
2018-05-15T12:31:44.968Z,45.31
2018-05-15T12:32:45.058Z,46.30
2018-05-15T12:33:44.868Z,45.51
2018-05-15T12:34:45.037Z,45.21
2018-05-15T12:35:45.276Z,44.25
2018-05-15T12:36:45.407Z,44.93
2018-05-15T12:37:45.608Z,45.21
2018-05-15T12:38:45.776Z,44.85
2018-05-15T12:39:46.899Z,44.95
2018-05-15T12:40:54.136Z,44.37
2018-05-15T12:41:46.522Z,43.70
2018-05-15T12:42:46.563Z,42.83
2018-05-15T12:43:46.780Z,42.05
2018-05-15T12:44:46.932Z,42.05
2018-05-15T12:45:47.121Z,42.94
2018-05-15T12:46:47.327Z,42.85
2018-05-15T12:47:47.506Z,42.36
2018-05-15T12:48:47.904Z,41.78
2018-05-15T12:49:55.570Z,41.78
2018-05-15T12:50:48.014Z,41.69
2018-05-15T12:51:48.245Z,42.39
2018-05-15T12:52:48.347Z,42.08
2018-05-15T12:53:48.520Z,41.69
2018-05-15T12:54:48.783Z,41.40
2018-05-15T12:55:48.931Z,40.82
2018-05-15T12:56:49.096Z,41.11
2018-05-15T12:57:49.280Z,41.78
2018-05-15T12:58:57.510Z,41.60
2018-05-15T12:59:49.701Z,41.78
2018-05-15T13:00:49.858Z,41.98
2018-05-15T13:01:50.029Z,41.88
2018-05-15T13:04:22.309Z,42.15
2018-05-15T13:05:22.493Z,41.86
2018-05-15T13:06:23.336Z,42.08
2018-05-15T13:07:22.885Z,41.88
2018-05-15T13:08:23.065Z,42.08
2018-05-15T13:09:23.840Z,41.96
2018-05-15T13:10:30.560Z,42.15
2018-05-15T13:11:23.670Z,43.14
2018-05-15T13:12:23.795Z,42.27
2018-05-15T13:13:23.961Z,41.98
2018-05-15T13:14:24.152Z,42.08
2018-05-15T13:15:24.344Z,42.46
2018-05-15T13:16:24.573Z,42.85
2018-05-15T13:17:24.652Z,42.08
2018-05-15T13:18:25.002Z,42.27
2018-05-15T13:19:25.101Z,42.35
2018-05-15T13:20:33.634Z,42.08
2018-05-15T13:21:26.869Z,42.08
2018-05-15T13:22:25.432Z,42.15
2018-05-15T13:23:25.601Z,42.54
2018-05-15T13:24:25.925Z,42.85
2018-05-15T13:25:25.982Z,41.78
2018-05-15T13:26:26.311Z,42.46
2018-05-15T13:27:26.375Z,42.46
2018-05-15T13:28:26.879Z,42.94
2018-05-15T13:29:26.694Z,42.85
2018-05-15T13:30:26.873Z,42.08
2018-05-15T13:31:35.044Z,41.78
2018-05-15T13:32:27.215Z,41.50
2018-05-15T13:33:27.385Z,41.98
2018-05-15T13:34:27.552Z,42.18
2018-05-15T13:35:27.807Z,42.56
2018-05-15T13:36:27.909Z,41.98
2018-05-15T13:37:28.084Z,41.98
2018-05-15T13:38:28.253Z,41.60
2018-05-15T13:39:28.440Z,41.30
2018-05-15T13:40:28.617Z,41.98
2018-05-15T13:41:28.780Z,41.88
2018-05-15T13:42:40.010Z,41.20
2018-05-15T13:43:29.229Z,41.11
2018-05-15T13:44:29.406Z,41.88
2018-05-15T13:45:29.592Z,41.11
2018-05-15T13:46:29.803Z,40.84
2018-05-15T13:47:39.577Z,40.84
2018-05-15T13:48:30.073Z,40.26
2018-05-15T13:49:30.274Z,40.26
2018-05-15T13:50:30.497Z,40.65
2018-05-15T13:51:30.652Z,40.45
2018-05-15T13:52:38.824Z,40.07
2018-05-15T13:53:31.070Z,39.87
2018-05-15T13:54:31.262Z,39.01